sensor_id;sensor_type;location;lat;lon;timestamp;temperature;humidity
69895;DHT22;57172;52.034;5.090;2024-02-21T00:00:34;10.40;88.90
69895;DHT22;57172;52.034;5.090;2024-02-21T00:03:01;10.40;88.90
69895;DHT22;57172;52.034;5.090;2024-02-21T00:05:29;10.40;88.80
69895;DHT22;57172;52.034;5.090;2024-02-21T00:07:58;10.30;89.00
69895;DHT22;57172;52.034;5.090;2024-02-21T00:10:26;10.30;89.00
69895;DHT22;57172;52.034;5.090;2024-02-21T00:12:53;10.30;89.00
69895;DHT22;57172;52.034;5.090;2024-02-21T00:15:20;10.30;89.00
69895;DHT22;57172;52.034;5.090;2024-02-21T00:17:47;10.30;89.20
69895;DHT22;57172;52.034;5.090;2024-02-21T00:20:15;10.30;89.30
69895;DHT22;57172;52.034;5.090;2024-02-21T00:22:42;10.30;89.30
69895;DHT22;57172;52.034;5.090;2024-02-21T00:25:09;10.30;89.40
69895;DHT22;57172;52.034;5.090;2024-02-21T00:27:36;10.20;89.40
69895;DHT22;57172;52.034;5.090;2024-02-21T00:30:03;10.30;89.40
69895;DHT22;57172;52.034;5.090;2024-02-21T00:32:30;10.30;89.40
69895;DHT22;57172;52.034;5.090;2024-02-21T00:34:58;10.20;89.50
69895;DHT22;57172;52.034;5.090;2024-02-21T00:37:25;10.30;89.50
69895;DHT22;57172;52.034;5.090;2024-02-21T00:39:54;10.30;89.40
69895;DHT22;57172;52.034;5.090;2024-02-21T00:42:21;10.30;89.50
69895;DHT22;57172;52.034;5.090;2024-02-21T00:44:48;10.30;89.40
69895;DHT22;57172;52.034;5.090;2024-02-21T00:47:15;10.30;89.40
69895;DHT22;57172;52.034;5.090;2024-02-21T00:49:42;10.30;89.40
69895;DHT22;57172;52.034;5.090;2024-02-21T00:52:09;10.20;89.40
69895;DHT22;57172;52.034;5.090;2024-02-21T00:54:36;10.20;89.50
69895;DHT22;57172;52.034;5.090;2024-02-21T00:57:16;10.20;89.60
69895;DHT22;57172;52.034;5.090;2024-02-21T00:59:43;10.20;89.70
69895;DHT22;57172;52.034;5.090;2024-02-21T01:02:09;10.20;89.70
69895;DHT22;57172;52.034;5.090;2024-02-21T01:04:36;10.20;89.80
69895;DHT22;57172;52.034;5.090;2024-02-21T01:07:03;10.30;89.80
69895;DHT22;57172;52.034;5.090;2024-02-21T01:09:30;10.20;89.70
69895;DHT22;57172;52.034;5.090;2024-02-21T01:11:57;10.20;89.70
69895;DHT22;57172;52.034;5.090;2024-02-21T01:14:24;10.20;89.80
69895;DHT22;57172;52.034;5.090;2024-02-21T01:16:51;10.20;89.80
69895;DHT22;57172;52.034;5.090;2024-02-21T01:19:18;10.20;89.90
69895;DHT22;57172;52.034;5.090;2024-02-21T01:21:45;10.20;89.90
69895;DHT22;57172;52.034;5.090;2024-02-21T01:24:12;10.20;89.90
69895;DHT22;57172;52.034;5.090;2024-02-21T01:26:39;10.30;89.90
69895;DHT22;57172;52.034;5.090;2024-02-21T01:29:06;10.30;89.80
69895;DHT22;57172;52.034;5.090;2024-02-21T01:31:33;10.30;89.80
69895;DHT22;57172;52.034;5.090;2024-02-21T01:33:59;10.30;89.80
69895;DHT22;57172;52.034;5.090;2024-02-21T01:36:26;10.30;89.70
69895;DHT22;57172;52.034;5.090;2024-02-21T01:38:53;10.30;89.70
69895;DHT22;57172;52.034;5.090;2024-02-21T01:41:20;10.30;89.70
69895;DHT22;57172;52.034;5.090;2024-02-21T01:43:47;10.30;89.80
69895;DHT22;57172;52.034;5.090;2024-02-21T01:46:14;10.20;89.80
69895;DHT22;57172;52.034;5.090;2024-02-21T01:48:41;10.20;89.90
69895;DHT22;57172;52.034;5.090;2024-02-21T01:51:08;10.20;89.90
69895;DHT22;57172;52.034;5.090;2024-02-21T01:53:38;10.20;89.90
69895;DHT22;57172;52.034;5.090;2024-02-21T01:56:07;10.30;89.90
69895;DHT22;57172;52.034;5.090;2024-02-21T01:58:37;10.20;89.80
69895;DHT22;57172;52.034;5.090;2024-02-21T02:01:04;10.20;89.80
69895;DHT22;57172;52.034;5.090;2024-02-21T02:03:31;10.20;89.80
69895;DHT22;57172;52.034;5.090;2024-02-21T02:05:58;10.20;89.90
69895;DHT22;57172;52.034;5.090;2024-02-21T02:08:25;10.20;90.00
69895;DHT22;57172;52.034;5.090;2024-02-21T02:10:52;10.20;89.90
69895;DHT22;57172;52.034;5.090;2024-02-21T02:13:19;10.20;89.90
69895;DHT22;57172;52.034;5.090;2024-02-21T02:15:50;10.30;89.90
69895;DHT22;57172;52.034;5.090;2024-02-21T02:18:18;10.30;89.70
69895;DHT22;57172;52.034;5.090;2024-02-21T02:20:46;10.20;89.70
69895;DHT22;57172;52.034;5.090;2024-02-21T02:25:50;10.20;89.70
69895;DHT22;57172;52.034;5.090;2024-02-21T02:28:21;10.20;89.70
69895;DHT22;57172;52.034;5.090;2024-02-21T02:30:48;10.20;89.70
69895;DHT22;57172;52.034;5.090;2024-02-21T02:33:16;10.20;89.70
69895;DHT22;57172;52.034;5.090;2024-02-21T02:35:46;10.20;89.70
69895;DHT22;57172;52.034;5.090;2024-02-21T02:38:13;10.20;89.80
69895;DHT22;57172;52.034;5.090;2024-02-21T02:40:41;10.20;89.80
69895;DHT22;57172;52.034;5.090;2024-02-21T02:43:08;10.20;89.80
69895;DHT22;57172;52.034;5.090;2024-02-21T02:45:35;10.10;89.90
69895;DHT22;57172;52.034;5.090;2024-02-21T02:48:03;10.10;89.90
69895;DHT22;57172;52.034;5.090;2024-02-21T02:50:30;10.10;90.00
69895;DHT22;57172;52.034;5.090;2024-02-21T02:52:57;10.10;90.00
69895;DHT22;57172;52.034;5.090;2024-02-21T02:55:24;10.10;90.10
69895;DHT22;57172;52.034;5.090;2024-02-21T02:57:54;10.10;90.00
69895;DHT22;57172;52.034;5.090;2024-02-21T03:00:21;10.10;90.00
69895;DHT22;57172;52.034;5.090;2024-02-21T03:02:49;10.10;90.00
69895;DHT22;57172;52.034;5.090;2024-02-21T03:05:21;10.10;90.10
69895;DHT22;57172;52.034;5.090;2024-02-21T03:07:48;10.10;90.10
69895;DHT22;57172;52.034;5.090;2024-02-21T03:10:16;10.10;90.10
69895;DHT22;57172;52.034;5.090;2024-02-21T03:12:45;10.10;90.10
69895;DHT22;57172;52.034;5.090;2024-02-21T03:15:13;10.10;90.10
69895;DHT22;57172;52.034;5.090;2024-02-21T03:17:41;10.10;90.10
69895;DHT22;57172;52.034;5.090;2024-02-21T03:20:09;10.10;90.10
69895;DHT22;57172;52.034;5.090;2024-02-21T03:22:38;10.10;90.10
69895;DHT22;57172;52.034;5.090;2024-02-21T03:25:05;10.10;90.00
69895;DHT22;57172;52.034;5.090;2024-02-21T03:27:33;10.10;90.10
69895;DHT22;57172;52.034;5.090;2024-02-21T03:30:00;10.10;90.00
69895;DHT22;57172;52.034;5.090;2024-02-21T03:32:27;10.00;90.10
69895;DHT22;57172;52.034;5.090;2024-02-21T03:34:55;10.10;90.10
69895;DHT22;57172;52.034;5.090;2024-02-21T03:37:22;10.10;90.00
69895;DHT22;57172;52.034;5.090;2024-02-21T03:39:49;10.10;90.00
69895;DHT22;57172;52.034;5.090;2024-02-21T03:42:16;10.00;90.00
69895;DHT22;57172;52.034;5.090;2024-02-21T03:44:43;10.00;90.10
69895;DHT22;57172;52.034;5.090;2024-02-21T03:47:10;10.00;90.20
69895;DHT22;57172;52.034;5.090;2024-02-21T03:49:38;10.00;90.20
69895;DHT22;57172;52.034;5.090;2024-02-21T03:52:06;10.00;90.20
69895;DHT22;57172;52.034;5.090;2024-02-21T03:54:32;10.00;90.10
69895;DHT22;57172;52.034;5.090;2024-02-21T03:56:59;10.00;90.10
69895;DHT22;57172;52.034;5.090;2024-02-21T03:59:26;10.00;90.10
69895;DHT22;57172;52.034;5.090;2024-02-21T04:01:53;10.00;90.10
69895;DHT22;57172;52.034;5.090;2024-02-21T04:04:21;10.00;90.10
69895;DHT22;57172;52.034;5.090;2024-02-21T04:06:49;10.00;90.20
69895;DHT22;57172;52.034;5.090;2024-02-21T04:09:16;9.90;90.20
69895;DHT22;57172;52.034;5.090;2024-02-21T04:11:43;9.90;90.30
69895;DHT22;57172;52.034;5.090;2024-02-21T04:14:10;10.00;90.30
69895;DHT22;57172;52.034;5.090;2024-02-21T04:16:38;9.90;90.30
69895;DHT22;57172;52.034;5.090;2024-02-21T04:19:06;9.90;90.30
69895;DHT22;57172;52.034;5.090;2024-02-21T04:21:34;9.90;90.30
69895;DHT22;57172;52.034;5.090;2024-02-21T04:24:01;9.90;90.40
69895;DHT22;57172;52.034;5.090;2024-02-21T04:26:30;9.90;90.40
69895;DHT22;57172;52.034;5.090;2024-02-21T04:28:57;9.90;90.30
69895;DHT22;57172;52.034;5.090;2024-02-21T04:31:24;9.90;90.40
69895;DHT22;57172;52.034;5.090;2024-02-21T04:33:51;9.90;90.30
69895;DHT22;57172;52.034;5.090;2024-02-21T04:36:18;9.90;90.40
69895;DHT22;57172;52.034;5.090;2024-02-21T04:38:45;9.90;90.30
69895;DHT22;57172;52.034;5.090;2024-02-21T04:41:12;9.90;90.30
69895;DHT22;57172;52.034;5.090;2024-02-21T04:43:39;9.90;90.30
69895;DHT22;57172;52.034;5.090;2024-02-21T04:46:06;9.90;90.30
69895;DHT22;57172;52.034;5.090;2024-02-21T04:48:33;9.90;90.40
69895;DHT22;57172;52.034;5.090;2024-02-21T04:51:00;9.90;90.50
69895;DHT22;57172;52.034;5.090;2024-02-21T04:53:26;9.90;90.50
69895;DHT22;57172;52.034;5.090;2024-02-21T04:55:53;9.90;90.50
69895;DHT22;57172;52.034;5.090;2024-02-21T04:58:20;9.90;90.50
69895;DHT22;57172;52.034;5.090;2024-02-21T05:00:47;9.90;90.50
69895;DHT22;57172;52.034;5.090;2024-02-21T05:03:14;9.90;90.50
69895;DHT22;57172;52.034;5.090;2024-02-21T05:05:41;9.90;90.70
69895;DHT22;57172;52.034;5.090;2024-02-21T05:08:09;9.90;90.60
69895;DHT22;57172;52.034;5.090;2024-02-21T05:10:37;9.90;90.70
69895;DHT22;57172;52.034;5.090;2024-02-21T05:13:04;9.90;90.70
69895;DHT22;57172;52.034;5.090;2024-02-21T05:15:31;9.90;90.70
69895;DHT22;57172;52.034;5.090;2024-02-21T05:17:58;9.90;90.70
69895;DHT22;57172;52.034;5.090;2024-02-21T05:20:25;9.90;90.70
69895;DHT22;57172;52.034;5.090;2024-02-21T05:22:52;9.90;90.70
69895;DHT22;57172;52.034;5.090;2024-02-21T05:25:19;10.00;90.60
69895;DHT22;57172;52.034;5.090;2024-02-21T05:27:46;10.00;90.60
69895;DHT22;57172;52.034;5.090;2024-02-21T05:30:13;10.00;90.60
69895;DHT22;57172;52.034;5.090;2024-02-21T05:32:40;10.00;90.50
69895;DHT22;57172;52.034;5.090;2024-02-21T05:35:07;10.00;90.60
69895;DHT22;57172;52.034;5.090;2024-02-21T05:37:34;10.00;90.50
69895;DHT22;57172;52.034;5.090;2024-02-21T05:40:01;10.00;90.50
69895;DHT22;57172;52.034;5.090;2024-02-21T05:42:28;10.00;90.50
69895;DHT22;57172;52.034;5.090;2024-02-21T05:44:54;10.00;90.40
69895;DHT22;57172;52.034;5.090;2024-02-21T05:47:21;10.00;90.40
69895;DHT22;57172;52.034;5.090;2024-02-21T05:49:48;10.00;90.40
69895;DHT22;57172;52.034;5.090;2024-02-21T05:52:15;10.00;90.40
69895;DHT22;57172;52.034;5.090;2024-02-21T05:54:42;9.90;90.40
69895;DHT22;57172;52.034;5.090;2024-02-21T05:57:09;9.90;90.50
69895;DHT22;57172;52.034;5.090;2024-02-21T05:59:38;10.00;90.50
69895;DHT22;57172;52.034;5.090;2024-02-21T06:02:06;9.90;90.50
69895;DHT22;57172;52.034;5.090;2024-02-21T06:04:34;9.90;90.60
69895;DHT22;57172;52.034;5.090;2024-02-21T06:07:01;9.90;90.70
69895;DHT22;57172;52.034;5.090;2024-02-21T06:09:28;9.90;90.70
69895;DHT22;57172;52.034;5.090;2024-02-21T06:11:55;9.90;90.70
69895;DHT22;57172;52.034;5.090;2024-02-21T06:14:22;9.90;90.70
69895;DHT22;57172;52.034;5.090;2024-02-21T06:16:49;9.90;90.80
69895;DHT22;57172;52.034;5.090;2024-02-21T06:19:17;9.80;90.80
69895;DHT22;57172;52.034;5.090;2024-02-21T06:21:44;9.90;90.80
69895;DHT22;57172;52.034;5.090;2024-02-21T06:24:11;9.90;90.80
69895;DHT22;57172;52.034;5.090;2024-02-21T06:26:40;9.90;90.80
69895;DHT22;57172;52.034;5.090;2024-02-21T06:29:07;9.90;90.70
69895;DHT22;57172;52.034;5.090;2024-02-21T06:31:35;9.90;90.70
69895;DHT22;57172;52.034;5.090;2024-02-21T06:34:02;9.90;90.80
69895;DHT22;57172;52.034;5.090;2024-02-21T06:36:29;9.90;90.70
69895;DHT22;57172;52.034;5.090;2024-02-21T06:38:56;9.80;90.70
69895;DHT22;57172;52.034;5.090;2024-02-21T06:41:23;9.80;90.70
69895;DHT22;57172;52.034;5.090;2024-02-21T06:43:50;9.80;90.70
69895;DHT22;57172;52.034;5.090;2024-02-21T06:46:25;9.80;90.80
69895;DHT22;57172;52.034;5.090;2024-02-21T06:48:52;9.80;90.80
69895;DHT22;57172;52.034;5.090;2024-02-21T06:51:20;9.80;90.80
69895;DHT22;57172;52.034;5.090;2024-02-21T06:53:47;9.80;90.80
69895;DHT22;57172;52.034;5.090;2024-02-21T06:56:14;9.80;90.90
69895;DHT22;57172;52.034;5.090;2024-02-21T06:58:41;9.80;90.80
69895;DHT22;57172;52.034;5.090;2024-02-21T07:01:08;9.80;90.70
69895;DHT22;57172;52.034;5.090;2024-02-21T07:03:35;9.70;90.80
69895;DHT22;57172;52.034;5.090;2024-02-21T07:06:03;9.70;90.80
69895;DHT22;57172;52.034;5.090;2024-02-21T07:08:31;9.70;90.80
69895;DHT22;57172;52.034;5.090;2024-02-21T07:10:57;9.70;90.80
69895;DHT22;57172;52.034;5.090;2024-02-21T07:13:24;9.70;90.90
69895;DHT22;57172;52.034;5.090;2024-02-21T07:15:52;9.70;90.80
69895;DHT22;57172;52.034;5.090;2024-02-21T07:18:18;9.70;90.80
69895;DHT22;57172;52.034;5.090;2024-02-21T07:20:46;9.70;90.80
69895;DHT22;57172;52.034;5.090;2024-02-21T07:23:13;9.70;90.70
69895;DHT22;57172;52.034;5.090;2024-02-21T07:25:39;9.60;90.70
69895;DHT22;57172;52.034;5.090;2024-02-21T07:28:06;9.60;90.80
69895;DHT22;57172;52.034;5.090;2024-02-21T07:30:34;9.60;90.80
69895;DHT22;57172;52.034;5.090;2024-02-21T07:33:00;9.60;90.90
69895;DHT22;57172;52.034;5.090;2024-02-21T07:35:27;9.60;90.90
69895;DHT22;57172;52.034;5.090;2024-02-21T07:37:54;9.60;91.00
69895;DHT22;57172;52.034;5.090;2024-02-21T07:40:21;9.60;91.00
69895;DHT22;57172;52.034;5.090;2024-02-21T07:42:48;9.60;91.00
69895;DHT22;57172;52.034;5.090;2024-02-21T07:45:17;9.60;91.00
69895;DHT22;57172;52.034;5.090;2024-02-21T07:47:50;9.60;91.00
69895;DHT22;57172;52.034;5.090;2024-02-21T07:50:17;9.60;91.00
69895;DHT22;57172;52.034;5.090;2024-02-21T07:52:44;9.70;91.00
69895;DHT22;57172;52.034;5.090;2024-02-21T07:55:11;9.70;90.90
69895;DHT22;57172;52.034;5.090;2024-02-21T07:57:38;9.70;90.80
69895;DHT22;57172;52.034;5.090;2024-02-21T08:00:05;9.70;91.00
69895;DHT22;57172;52.034;5.090;2024-02-21T08:02:38;9.70;90.90
69895;DHT22;57172;52.034;5.090;2024-02-21T08:05:05;9.70;90.80
69895;DHT22;57172;52.034;5.090;2024-02-21T08:07:32;9.70;90.90
69895;DHT22;57172;52.034;5.090;2024-02-21T08:09:59;9.70;91.10
69895;DHT22;57172;52.034;5.090;2024-02-21T08:12:25;9.80;90.90
69895;DHT22;57172;52.034;5.090;2024-02-21T08:14:53;9.70;90.70
69895;DHT22;57172;52.034;5.090;2024-02-21T08:17:20;9.70;90.70
69895;DHT22;57172;52.034;5.090;2024-02-21T08:19:47;9.70;90.60
69895;DHT22;57172;52.034;5.090;2024-02-21T08:22:16;9.70;90.60
69895;DHT22;57172;52.034;5.090;2024-02-21T08:24:43;9.70;90.50
69895;DHT22;57172;52.034;5.090;2024-02-21T08:27:09;9.80;90.70
69895;DHT22;57172;52.034;5.090;2024-02-21T08:29:36;9.80;90.70
69895;DHT22;57172;52.034;5.090;2024-02-21T08:32:03;9.80;90.40
69895;DHT22;57172;52.034;5.090;2024-02-21T08:34:30;9.80;90.30
69895;DHT22;57172;52.034;5.090;2024-02-21T08:37:00;9.80;90.10
69895;DHT22;57172;52.034;5.090;2024-02-21T08:39:27;9.80;90.20
69895;DHT22;57172;52.034;5.090;2024-02-21T08:41:56;9.80;90.40
69895;DHT22;57172;52.034;5.090;2024-02-21T08:44:24;9.90;90.70
69895;DHT22;57172;52.034;5.090;2024-02-21T08:46:54;9.90;90.50
69895;DHT22;57172;52.034;5.090;2024-02-21T08:49:22;9.90;90.00
69895;DHT22;57172;52.034;5.090;2024-02-21T08:51:49;9.90;89.80
69895;DHT22;57172;52.034;5.090;2024-02-21T08:54:16;10.00;89.90
69895;DHT22;57172;52.034;5.090;2024-02-21T08:56:43;10.00;90.00
69895;DHT22;57172;52.034;5.090;2024-02-21T08:59:10;10.10;89.80
69895;DHT22;57172;52.034;5.090;2024-02-21T09:01:38;10.10;89.10
69895;DHT22;57172;52.034;5.090;2024-02-21T09:04:05;10.10;89.30
69895;DHT22;57172;52.034;5.090;2024-02-21T09:06:32;10.10;88.90
69895;DHT22;57172;52.034;5.090;2024-02-21T09:09:00;10.10;88.70
69895;DHT22;57172;52.034;5.090;2024-02-21T09:11:27;10.10;88.90
69895;DHT22;57172;52.034;5.090;2024-02-21T09:13:55;10.20;88.70
69895;DHT22;57172;52.034;5.090;2024-02-21T09:16:22;10.20;88.50
69895;DHT22;57172;52.034;5.090;2024-02-21T09:18:50;10.20;88.70
69895;DHT22;57172;52.034;5.090;2024-02-21T09:21:18;10.20;88.50
69895;DHT22;57172;52.034;5.090;2024-02-21T09:23:45;10.20;88.40
69895;DHT22;57172;52.034;5.090;2024-02-21T09:26:12;10.30;88.10
69895;DHT22;57172;52.034;5.090;2024-02-21T09:28:43;10.20;87.70
69895;DHT22;57172;52.034;5.090;2024-02-21T09:31:11;10.20;87.60
69895;DHT22;57172;52.034;5.090;2024-02-21T09:33:38;10.20;87.90
69895;DHT22;57172;52.034;5.090;2024-02-21T09:36:05;10.20;87.40
69895;DHT22;57172;52.034;5.090;2024-02-21T09:38:32;10.20;86.90
69895;DHT22;57172;52.034;5.090;2024-02-21T09:43:39;10.20;87.20
69895;DHT22;57172;52.034;5.090;2024-02-21T09:46:08;10.20;86.90
69895;DHT22;57172;52.034;5.090;2024-02-21T09:51:40;10.30;87.40
69895;DHT22;57172;52.034;5.090;2024-02-21T09:54:08;10.40;86.80
69895;DHT22;57172;52.034;5.090;2024-02-21T09:56:45;10.40;86.50
69895;DHT22;57172;52.034;5.090;2024-02-21T09:59:15;10.30;85.70
69895;DHT22;57172;52.034;5.090;2024-02-21T10:01:45;10.30;86.00
69895;DHT22;57172;52.034;5.090;2024-02-21T10:04:14;10.30;86.30
69895;DHT22;57172;52.034;5.090;2024-02-21T10:06:41;10.40;86.60
69895;DHT22;57172;52.034;5.090;2024-02-21T10:09:08;10.50;86.30
69895;DHT22;57172;52.034;5.090;2024-02-21T10:11:35;10.50;85.70
69895;DHT22;57172;52.034;5.090;2024-02-21T10:14:07;10.60;86.10
69895;DHT22;57172;52.034;5.090;2024-02-21T10:16:35;10.70;85.80
69895;DHT22;57172;52.034;5.090;2024-02-21T10:19:04;10.70;85.60
69895;DHT22;57172;52.034;5.090;2024-02-21T10:21:31;10.80;85.60
69895;DHT22;57172;52.034;5.090;2024-02-21T10:23:58;10.90;84.90
69895;DHT22;57172;52.034;5.090;2024-02-21T10:26:25;10.90;84.40
69895;DHT22;57172;52.034;5.090;2024-02-21T10:28:52;10.90;84.40
69895;DHT22;57172;52.034;5.090;2024-02-21T10:31:25;10.90;84.40
69895;DHT22;57172;52.034;5.090;2024-02-21T10:33:57;10.90;83.60
69895;DHT22;57172;52.034;5.090;2024-02-21T10:36:24;10.90;84.30
69895;DHT22;57172;52.034;5.090;2024-02-21T10:38:52;11.00;84.20
69895;DHT22;57172;52.034;5.090;2024-02-21T10:41:20;11.00;83.80
69895;DHT22;57172;52.034;5.090;2024-02-21T10:43:52;11.00;84.00
69895;DHT22;57172;52.034;5.090;2024-02-21T10:46:22;11.00;83.80
69895;DHT22;57172;52.034;5.090;2024-02-21T10:49:10;11.10;83.80
69895;DHT22;57172;52.034;5.090;2024-02-21T10:51:43;11.10;83.90
69895;DHT22;57172;52.034;5.090;2024-02-21T10:54:32;11.20;83.70
69895;DHT22;57172;52.034;5.090;2024-02-21T10:57:02;11.20;83.40
69895;DHT22;57172;52.034;5.090;2024-02-21T10:59:32;11.30;83.20
69895;DHT22;57172;52.034;5.090;2024-02-21T11:01:59;11.30;83.20
69895;DHT22;57172;52.034;5.090;2024-02-21T11:04:26;11.30;82.90
69895;DHT22;57172;52.034;5.090;2024-02-21T11:06:54;11.30;82.90
69895;DHT22;57172;52.034;5.090;2024-02-21T11:09:30;11.20;82.60
69895;DHT22;57172;52.034;5.090;2024-02-21T11:12:03;11.10;82.80
69895;DHT22;57172;52.034;5.090;2024-02-21T11:14:31;10.90;82.80
69895;DHT22;57172;52.034;5.090;2024-02-21T11:17:19;10.90;83.40
69895;DHT22;57172;52.034;5.090;2024-02-21T11:19:49;10.90;83.20
69895;DHT22;57172;52.034;5.090;2024-02-21T11:22:20;10.80;83.30
69895;DHT22;57172;52.034;5.090;2024-02-21T11:24:51;10.80;83.40
69895;DHT22;57172;52.034;5.090;2024-02-21T11:27:21;10.80;83.50
69895;DHT22;57172;52.034;5.090;2024-02-21T11:29:54;10.80;83.90
69895;DHT22;57172;52.034;5.090;2024-02-21T11:32:21;10.80;83.80
69895;DHT22;57172;52.034;5.090;2024-02-21T11:34:59;10.80;83.50
69895;DHT22;57172;52.034;5.090;2024-02-21T11:37:35;10.80;83.60
69895;DHT22;57172;52.034;5.090;2024-02-21T11:40:06;10.80;84.00
69895;DHT22;57172;52.034;5.090;2024-02-21T11:42:39;10.90;84.00
69895;DHT22;57172;52.034;5.090;2024-02-21T11:45:06;10.90;84.50
69895;DHT22;57172;52.034;5.090;2024-02-21T11:47:35;11.00;84.70
69895;DHT22;57172;52.034;5.090;2024-02-21T11:50:10;11.10;84.10
69895;DHT22;57172;52.034;5.090;2024-02-21T11:52:38;11.10;84.70
69895;DHT22;57172;52.034;5.090;2024-02-21T11:55:06;11.20;84.40
69895;DHT22;57172;52.034;5.090;2024-02-21T11:57:36;11.30;84.00
69895;DHT22;57172;52.034;5.090;2024-02-21T12:00:18;11.40;83.80
69895;DHT22;57172;52.034;5.090;2024-02-21T12:02:47;11.40;83.10
69895;DHT22;57172;52.034;5.090;2024-02-21T12:05:14;11.40;83.20
69895;DHT22;57172;52.034;5.090;2024-02-21T12:07:42;11.50;82.90
69895;DHT22;57172;52.034;5.090;2024-02-21T12:10:13;11.50;82.70
69895;DHT22;57172;52.034;5.090;2024-02-21T12:12:40;11.50;82.70
69895;DHT22;57172;52.034;5.090;2024-02-21T12:15:08;11.50;82.30
69895;DHT22;57172;52.034;5.090;2024-02-21T12:17:39;11.50;82.00
69895;DHT22;57172;52.034;5.090;2024-02-21T12:20:07;11.40;81.80
69895;DHT22;57172;52.034;5.090;2024-02-21T12:22:48;11.40;82.00
69895;DHT22;57172;52.034;5.090;2024-02-21T12:25:17;11.40;82.00
69895;DHT22;57172;52.034;5.090;2024-02-21T12:27:49;11.40;81.90
69895;DHT22;57172;52.034;5.090;2024-02-21T12:30:16;11.40;81.50
69895;DHT22;57172;52.034;5.090;2024-02-21T12:32:43;11.40;81.80
69895;DHT22;57172;52.034;5.090;2024-02-21T12:35:10;11.40;81.80
69895;DHT22;57172;52.034;5.090;2024-02-21T12:37:37;11.50;81.80
69895;DHT22;57172;52.034;5.090;2024-02-21T12:40:09;11.50;81.60
69895;DHT22;57172;52.034;5.090;2024-02-21T12:42:37;11.50;81.70
69895;DHT22;57172;52.034;5.090;2024-02-21T12:45:04;11.60;81.30
69895;DHT22;57172;52.034;5.090;2024-02-21T12:47:31;11.60;81.30
69895;DHT22;57172;52.034;5.090;2024-02-21T12:49:58;11.60;81.10
69895;DHT22;57172;52.034;5.090;2024-02-21T12:52:25;11.60;80.90
69895;DHT22;57172;52.034;5.090;2024-02-21T12:54:52;11.50;81.00
69895;DHT22;57172;52.034;5.090;2024-02-21T12:57:23;11.50;81.30
69895;DHT22;57172;52.034;5.090;2024-02-21T12:59:52;11.60;81.50
69895;DHT22;57172;52.034;5.090;2024-02-21T13:02:19;11.70;81.50
69895;DHT22;57172;52.034;5.090;2024-02-21T13:04:47;11.70;80.90
69895;DHT22;57172;52.034;5.090;2024-02-21T13:07:14;11.80;80.40
69895;DHT22;57172;52.034;5.090;2024-02-21T13:09:41;11.80;79.80
69895;DHT22;57172;52.034;5.090;2024-02-21T13:12:08;11.80;79.80
69895;DHT22;57172;52.034;5.090;2024-02-21T13:14:35;11.80;79.40
69895;DHT22;57172;52.034;5.090;2024-02-21T13:17:03;11.80;79.40
69895;DHT22;57172;52.034;5.090;2024-02-21T13:19:30;11.80;79.10
69895;DHT22;57172;52.034;5.090;2024-02-21T13:21:57;11.70;79.50
69895;DHT22;57172;52.034;5.090;2024-02-21T13:24:24;11.70;79.20
69895;DHT22;57172;52.034;5.090;2024-02-21T13:26:51;11.70;79.40
69895;DHT22;57172;52.034;5.090;2024-02-21T13:29:18;11.70;79.40
69895;DHT22;57172;52.034;5.090;2024-02-21T13:31:45;11.60;79.70
69895;DHT22;57172;52.034;5.090;2024-02-21T13:34:12;11.60;79.50
69895;DHT22;57172;52.034;5.090;2024-02-21T13:36:39;11.60;79.70
69895;DHT22;57172;52.034;5.090;2024-02-21T13:39:06;11.60;79.80
69895;DHT22;57172;52.034;5.090;2024-02-21T13:41:34;11.60;79.60
69895;DHT22;57172;52.034;5.090;2024-02-21T13:44:01;11.50;79.40
69895;DHT22;57172;52.034;5.090;2024-02-21T13:46:30;11.50;79.10
69895;DHT22;57172;52.034;5.090;2024-02-21T13:49:03;11.40;79.10
69895;DHT22;57172;52.034;5.090;2024-02-21T13:51:37;11.40;79.20
69895;DHT22;57172;52.034;5.090;2024-02-21T13:54:04;11.30;79.10
69895;DHT22;57172;52.034;5.090;2024-02-21T13:56:31;11.30;79.10
69895;DHT22;57172;52.034;5.090;2024-02-21T13:58:58;11.30;79.00
69895;DHT22;57172;52.034;5.090;2024-02-21T14:01:27;11.20;79.10
69895;DHT22;57172;52.034;5.090;2024-02-21T14:03:59;11.20;78.80
69895;DHT22;57172;52.034;5.090;2024-02-21T14:06:25;11.20;78.70
69895;DHT22;57172;52.034;5.090;2024-02-21T14:08:52;11.20;79.10
69895;DHT22;57172;52.034;5.090;2024-02-21T14:11:19;11.20;79.10
69895;DHT22;57172;52.034;5.090;2024-02-21T14:13:46;11.20;79.10
69895;DHT22;57172;52.034;5.090;2024-02-21T14:16:13;11.30;78.80
69895;DHT22;57172;52.034;5.090;2024-02-21T14:18:40;11.30;78.90
69895;DHT22;57172;52.034;5.090;2024-02-21T14:21:09;11.30;78.80
69895;DHT22;57172;52.034;5.090;2024-02-21T14:23:37;11.30;79.00
69895;DHT22;57172;52.034;5.090;2024-02-21T14:26:05;11.30;78.50
69895;DHT22;57172;52.034;5.090;2024-02-21T14:28:33;11.30;78.80
69895;DHT22;57172;52.034;5.090;2024-02-21T14:31:03;11.20;79.10
69895;DHT22;57172;52.034;5.090;2024-02-21T14:33:32;11.10;79.40
69895;DHT22;57172;52.034;5.090;2024-02-21T14:35:59;11.10;79.50
69895;DHT22;57172;52.034;5.090;2024-02-21T14:38:26;11.00;79.80
69895;DHT22;57172;52.034;5.090;2024-02-21T14:40:54;11.00;80.20
69895;DHT22;57172;52.034;5.090;2024-02-21T14:43:21;10.90;80.80
69895;DHT22;57172;52.034;5.090;2024-02-21T14:45:49;10.80;81.20
69895;DHT22;57172;52.034;5.090;2024-02-21T14:48:16;10.80;81.80
69895;DHT22;57172;52.034;5.090;2024-02-21T14:50:43;10.60;82.60
69895;DHT22;57172;52.034;5.090;2024-02-21T14:53:10;10.50;83.30
69895;DHT22;57172;52.034;5.090;2024-02-21T14:55:37;10.40;84.10
69895;DHT22;57172;52.034;5.090;2024-02-21T14:58:10;10.30;85.20
69895;DHT22;57172;52.034;5.090;2024-02-21T15:00:37;10.20;86.10
69895;DHT22;57172;52.034;5.090;2024-02-21T15:03:06;10.10;87.10
69895;DHT22;57172;52.034;5.090;2024-02-21T15:05:34;10.00;87.60
69895;DHT22;57172;52.034;5.090;2024-02-21T15:08:01;9.90;88.00
69895;DHT22;57172;52.034;5.090;2024-02-21T15:10:29;9.90;88.50
69895;DHT22;57172;52.034;5.090;2024-02-21T15:12:56;9.80;89.30
69895;DHT22;57172;52.034;5.090;2024-02-21T15:15:22;9.70;90.10
69895;DHT22;57172;52.034;5.090;2024-02-21T15:17:49;9.70;90.40
69895;DHT22;57172;52.034;5.090;2024-02-21T15:20:17;9.70;90.70
69895;DHT22;57172;52.034;5.090;2024-02-21T15:22:44;9.60;91.50
69895;DHT22;57172;52.034;5.090;2024-02-21T15:25:11;9.60;91.60
69895;DHT22;57172;52.034;5.090;2024-02-21T15:27:45;9.60;92.50
69895;DHT22;57172;52.034;5.090;2024-02-21T15:30:14;9.50;92.60
69895;DHT22;57172;52.034;5.090;2024-02-21T15:32:41;9.50;93.00
69895;DHT22;57172;52.034;5.090;2024-02-21T15:37:59;9.50;93.80
69895;DHT22;57172;52.034;5.090;2024-02-21T15:40:27;9.40;94.00
69895;DHT22;57172;52.034;5.090;2024-02-21T15:42:54;9.50;94.00
69895;DHT22;57172;52.034;5.090;2024-02-21T15:45:21;9.40;94.00
69895;DHT22;57172;52.034;5.090;2024-02-21T15:47:48;9.40;94.20
69895;DHT22;57172;52.034;5.090;2024-02-21T15:50:15;9.40;94.60